createdAt,value
2023-03-29T00:03:34.359Z,4.38
2023-03-29T00:06:06.198Z,4.10
2023-03-29T00:08:34.519Z,4.38
2023-03-29T00:11:33.400Z,3.97
2023-03-29T00:14:47.237Z,4.45
2023-03-29T00:17:21.874Z,4.57
2023-03-29T00:19:49.881Z,4.20
2023-03-29T00:22:17.951Z,3.90
2023-03-29T00:24:48.268Z,3.78
2023-03-29T00:27:16.955Z,3.38
2023-03-29T00:29:45.007Z,3.60
2023-03-29T00:32:13.484Z,3.58
2023-03-29T00:34:43.140Z,3.72
2023-03-29T00:37:12.686Z,4.10
2023-03-29T00:39:42.423Z,3.80
2023-03-29T00:42:15.630Z,3.60
2023-03-29T00:45:23.945Z,3.30
2023-03-29T00:48:03.907Z,3.30
2023-03-29T00:50:40.791Z,3.70
2023-03-29T00:53:27.579Z,2.80
2023-03-29T00:56:12.257Z,2.97
2023-03-29T00:58:44.605Z,2.72
2023-03-29T01:01:17.829Z,2.67
2023-03-29T01:03:54.876Z,2.30
2023-03-29T01:06:29.525Z,2.05
2023-03-29T01:09:09.799Z,2.28
2023-03-29T01:11:48.430Z,1.98
2023-03-29T01:14:30.113Z,1.90
2023-03-29T01:16:58.396Z,1.83
2023-03-29T01:19:32.361Z,1.83
2023-03-29T01:22:08.067Z,2.00
2023-03-29T01:24:42.266Z,1.70
2023-03-29T01:27:35.084Z,1.88
2023-03-29T01:30:10.678Z,2.00
2023-03-29T01:32:57.231Z,2.40
2023-03-29T01:35:40.099Z,2.38
2023-03-29T01:38:20.880Z,2.17
2023-03-29T01:40:48.659Z,2.35
2023-03-29T01:43:26.284Z,1.95
2023-03-29T01:46:19.370Z,1.95
2023-03-29T01:48:57.090Z,1.70
2023-03-29T01:51:42.780Z,1.65
2023-03-29T01:54:16.965Z,1.60
2023-03-29T01:56:49.248Z,2.15
2023-03-29T01:59:28.678Z,2.00
2023-03-29T02:02:00.974Z,1.70
2023-03-29T02:04:38.717Z,1.80
2023-03-29T02:07:09.079Z,2.30
2023-03-29T02:09:39.032Z,1.90
2023-03-29T02:15:30.116Z,1.63
2023-03-29T02:17:58.163Z,1.98
2023-03-29T02:20:30.506Z,2.15
2023-03-29T02:23:14.689Z,1.77
2023-03-29T02:25:45.916Z,2.00
2023-03-29T02:28:14.501Z,2.47
2023-03-29T02:30:57.643Z,2.08
2023-03-29T02:33:37.173Z,2.35
2023-03-29T02:36:15.023Z,2.00
2023-03-29T02:38:42.890Z,2.08
2023-03-29T02:41:11.219Z,2.10
2023-03-29T02:43:41.048Z,2.15
2023-03-29T02:46:11.287Z,2.40
2023-03-29T02:48:39.924Z,2.03
2023-03-29T02:51:20.772Z,2.20
2023-03-29T02:53:57.460Z,1.80
2023-03-29T02:56:25.240Z,1.67
2023-03-29T02:58:53.130Z,1.80
2023-03-29T03:01:21.332Z,2.15
2023-03-29T03:03:50.978Z,2.10
2023-03-29T03:06:19.593Z,1.90
2023-03-29T03:08:47.679Z,1.98
2023-03-29T03:11:15.629Z,1.90
2023-03-29T03:13:43.400Z,2.00
2023-03-29T03:16:11.226Z,2.05
2023-03-29T03:18:39.375Z,2.30
2023-03-29T03:21:07.472Z,2.30
2023-03-29T03:23:35.806Z,2.60
2023-03-29T03:26:03.781Z,2.30
2023-03-29T03:28:33.590Z,2.42
2023-03-29T03:31:04.555Z,2.10
2023-03-29T03:33:55.547Z,2.00
2023-03-29T03:36:43.438Z,2.33
2023-03-29T03:39:13.321Z,2.40
2023-03-29T03:41:47.581Z,2.50
2023-03-29T03:44:17.488Z,2.67
2023-03-29T03:46:48.317Z,2.20
2023-03-29T03:49:16.806Z,2.47
2023-03-29T03:51:45.711Z,2.22
2023-03-29T03:54:14.438Z,2.03
2023-03-29T03:59:45.355Z,2.30
2023-03-29T04:02:18.227Z,1.95
2023-03-29T04:04:46.568Z,2.30
2023-03-29T04:07:18.913Z,2.13
2023-03-29T04:10:06.516Z,2.25
2023-03-29T04:12:37.703Z,2.33
2023-03-29T04:15:08.029Z,2.40
2023-03-29T04:17:42.646Z,2.50
2023-03-29T04:29:22.127Z,2.53
2023-03-29T04:31:56.779Z,2.72
2023-03-29T04:34:53.841Z,3.10
2023-03-29T04:37:22.609Z,2.92
2023-03-29T04:39:54.451Z,2.40
2023-03-29T04:42:23.590Z,2.60
2023-03-29T04:44:51.907Z,2.60
2023-03-29T04:47:31.546Z,2.20
2023-03-29T04:50:09.946Z,1.98
2023-03-29T04:52:42.958Z,2.00
2023-03-29T04:55:12.035Z,2.45
2023-03-29T04:57:49.461Z,2.40
2023-03-29T05:00:27.363Z,2.50
2023-03-29T05:03:14.833Z,2.22
2023-03-29T05:05:52.032Z,2.65
2023-03-29T05:08:20.181Z,5.45
2023-03-29T05:11:10.628Z,4.32
2023-03-29T05:13:38.892Z,3.92
2023-03-29T05:16:13.522Z,3.13
2023-03-29T05:18:42.100Z,3.92
2023-03-29T05:21:11.369Z,2.83
2023-03-29T05:23:42.333Z,4.00
2023-03-29T05:26:29.919Z,4.03
2023-03-29T05:28:58.760Z,4.40
2023-03-29T05:31:28.507Z,3.80
2023-03-29T05:34:32.196Z,3.85
2023-03-29T05:37:03.106Z,3.40
2023-03-29T05:40:13.972Z,3.42
2023-03-29T05:43:38.660Z,4.18
2023-03-29T05:46:28.454Z,4.50
2023-03-29T05:49:02.886Z,4.20
2023-03-29T05:51:49.825Z,3.93
2023-03-29T05:54:40.211Z,4.00
2023-03-29T05:57:33.919Z,4.18
2023-03-29T06:00:32.196Z,4.90
2023-03-29T06:03:21.667Z,4.70
2023-03-29T06:06:00.707Z,4.53
2023-03-29T06:08:45.141Z,4.07
2023-03-29T06:11:24.523Z,4.72
2023-03-29T06:15:10.255Z,4.55
2023-03-29T06:18:04.950Z,5.63
2023-03-29T06:20:39.280Z,5.38
2023-03-29T06:23:13.900Z,4.78
2023-03-29T06:25:45.212Z,5.63
2023-03-29T06:28:34.023Z,6.03
2023-03-29T06:31:10.614Z,5.88
2023-03-29T06:34:00.060Z,5.47
2023-03-29T06:37:07.750Z,5.65
2023-03-29T06:40:23.233Z,5.55
2023-03-29T06:42:58.191Z,5.70
2023-03-29T06:45:38.963Z,5.80
2023-03-29T06:48:44.032Z,6.05
2023-03-29T06:51:15.097Z,6.13
2023-03-29T06:53:44.864Z,5.85
2023-03-29T06:56:18.139Z,4.97
2023-03-29T06:59:03.216Z,5.32
2023-03-29T07:02:02.263Z,8.73
2023-03-29T07:04:52.793Z,5.97
2023-03-29T07:07:37.899Z,5.15
2023-03-29T07:10:28.892Z,5.18
2023-03-29T07:13:30.888Z,5.00
2023-03-29T07:16:02.234Z,5.22
2023-03-29T07:19:12.448Z,5.97
2023-03-29T07:21:54.040Z,6.50
2023-03-29T07:24:56.932Z,6.03
2023-03-29T07:27:55.130Z,6.65
2023-03-29T07:30:42.750Z,5.75
2023-03-29T07:33:49.943Z,4.80
2023-03-29T07:36:47.916Z,3.85
2023-03-29T07:39:37.682Z,3.78
2023-03-29T07:43:31.216Z,3.70
2023-03-29T07:46:25.932Z,3.30
2023-03-29T07:49:20.370Z,3.33
2023-03-29T07:52:09.272Z,3.90
2023-03-29T07:54:59.302Z,3.50
2023-03-29T07:58:10.000Z,3.88
2023-03-29T08:01:20.539Z,3.67
2023-03-29T08:04:23.962Z,2.75
2023-03-29T08:07:42.047Z,3.15
2023-03-29T08:10:24.116Z,3.15
2023-03-29T08:13:23.856Z,2.95
2023-03-29T08:16:15.459Z,3.65
2023-03-29T08:19:20.737Z,2.50
2023-03-29T08:22:18.922Z,4.18
2023-03-29T08:25:11.279Z,3.83
2023-03-29T08:28:02.519Z,2.60
2023-03-29T08:30:51.730Z,2.50
2023-03-29T08:33:22.572Z,2.28
2023-03-29T08:36:21.369Z,1.70
2023-03-29T08:38:51.983Z,2.30
2023-03-29T08:41:46.873Z,2.00
2023-03-29T08:44:34.082Z,2.70
2023-03-29T08:47:42.914Z,2.35
2023-03-29T08:50:39.980Z,2.30
2023-03-29T08:53:45.785Z,3.15
2023-03-29T08:56:53.913Z,3.00
2023-03-29T08:59:33.761Z,2.20
2023-03-29T09:02:28.964Z,2.38
2023-03-29T09:05:28.806Z,3.00
2023-03-29T09:08:24.300Z,3.05
2023-03-29T09:11:26.829Z,2.20
2023-03-29T09:15:20.581Z,2.10
2023-03-29T09:18:33.183Z,2.10
2023-03-29T09:21:35.616Z,2.33
2023-03-29T09:24:28.712Z,2.42
2023-03-29T09:27:39.942Z,2.10
2023-03-29T09:30:26.633Z,3.53
2023-03-29T09:33:43.795Z,2.75
2023-03-29T09:37:02.262Z,1.92
2023-03-29T09:39:53.754Z,1.60
2023-03-29T09:42:46.513Z,1.58
2023-03-29T09:45:30.150Z,1.50
2023-03-29T09:48:32.413Z,1.60
2023-03-29T09:51:28.145Z,1.80
2023-03-29T09:54:17.820Z,1.70
2023-03-29T09:57:18.664Z,1.60
2023-03-29T10:00:11.232Z,1.73
2023-03-29T10:03:00.668Z,1.80
2023-03-29T10:05:51.585Z,1.75
2023-03-29T10:08:52.744Z,1.70
2023-03-29T10:11:49.900Z,1.60
2023-03-29T10:14:53.593Z,1.73
2023-03-29T10:17:42.130Z,1.85
2023-03-29T10:20:35.149Z,1.90
2023-03-29T10:23:24.726Z,1.77
2023-03-29T10:26:35.041Z,2.05
2023-03-29T10:29:28.293Z,2.08
2023-03-29T10:32:36.685Z,1.63
2023-03-29T10:35:28.931Z,1.77
2023-03-29T10:38:21.849Z,1.58
2023-03-29T10:41:14.218Z,1.70
2023-03-29T10:44:27.114Z,2.10
2023-03-29T10:47:21.301Z,3.03
2023-03-29T10:50:16.057Z,1.50
2023-03-29T10:53:13.657Z,4.25
2023-03-29T10:56:20.980Z,4.97
2023-03-29T10:59:35.133Z,3.47
2023-03-29T11:02:56.828Z,3.40
2023-03-29T11:05:52.674Z,2.67
2023-03-29T11:08:51.188Z,2.20
2023-03-29T11:11:56.183Z,2.88
2023-03-29T11:15:21.434Z,2.60
2023-03-29T11:18:29.289Z,3.10
2023-03-29T11:21:54.201Z,2.90
2023-03-29T11:28:56.098Z,3.60
2023-03-29T11:32:00.890Z,4.53
2023-03-29T11:34:51.309Z,3.13
2023-03-29T11:38:06.103Z,3.63
2023-03-29T11:41:02.594Z,3.50
2023-03-29T11:43:55.481Z,2.65
2023-03-29T11:46:48.661Z,3.65
2023-03-29T11:49:34.210Z,2.40
2023-03-29T11:52:37.190Z,3.25
2023-03-29T11:55:28.417Z,2.97
2023-03-29T11:58:27.245Z,3.70
2023-03-29T12:01:47.372Z,3.90
2023-03-29T12:05:01.771Z,2.53
2023-03-29T12:08:33.921Z,2.72
2023-03-29T12:11:23.144Z,3.78
2023-03-29T12:14:33.864Z,3.92
2023-03-29T12:17:25.069Z,3.28
2023-03-29T12:20:31.960Z,4.78
2023-03-29T12:23:22.028Z,4.07
2023-03-29T12:26:17.679Z,4.13
2023-03-29T12:29:27.291Z,3.40
2023-03-29T12:32:20.087Z,3.60
2023-03-29T12:35:35.668Z,4.70
2023-03-29T12:38:30.844Z,5.32
2023-03-29T12:41:38.467Z,4.72
2023-03-29T12:44:34.569Z,3.03
2023-03-29T12:47:27.229Z,4.30
2023-03-29T12:50:23.843Z,3.80
2023-03-29T12:52:52.526Z,7.55
2023-03-29T12:55:43.998Z,5.03
2023-03-29T12:58:41.888Z,5.53
2023-03-29T13:01:27.974Z,8.27
2023-03-29T13:04:22.539Z,6.88
2023-03-29T13:07:03.501Z,5.70
2023-03-29T13:09:57.221Z,4.20
2023-03-29T13:12:47.630Z,4.32
2023-03-29T13:15:37.943Z,8.95
2023-03-29T13:19:07.201Z,9.43
2023-03-29T13:22:10.984Z,6.78
2023-03-29T13:25:06.629Z,6.03
2023-03-29T13:28:30.983Z,7.30
2023-03-29T13:31:38.736Z,8.25
2023-03-29T13:35:13.448Z,6.15
2023-03-29T13:38:19.643Z,6.60
2023-03-29T13:41:07.978Z,5.43
2023-03-29T13:43:58.343Z,4.93
2023-03-29T13:46:48.827Z,7.25
2023-03-29T13:49:33.048Z,10.38
2023-03-29T13:52:40.165Z,6.60
2023-03-29T13:55:39.392Z,7.88
2023-03-29T13:59:08.792Z,6.00
2023-03-29T14:02:01.078Z,6.75
2023-03-29T14:05:00.185Z,4.28
2023-03-29T14:07:51.798Z,5.30
2023-03-29T14:11:22.007Z,6.88
2023-03-29T14:17:25.317Z,6.95
2023-03-29T14:20:55.836Z,7.45
2023-03-29T14:23:55.331Z,9.90
2023-03-29T14:26:48.203Z,8.02
2023-03-29T14:29:37.316Z,9.60
2023-03-29T14:32:37.269Z,5.45
2023-03-29T14:35:35.060Z,6.93
2023-03-29T14:38:11.202Z,5.80
2023-03-29T14:40:56.382Z,6.95
2023-03-29T14:44:04.368Z,7.32
2023-03-29T14:46:55.156Z,6.00
2023-03-29T14:49:41.230Z,6.70
2023-03-29T14:52:32.324Z,6.80
2023-03-29T14:55:25.503Z,6.53
2023-03-29T14:58:27.461Z,7.20
2023-03-29T15:01:22.484Z,8.65
2023-03-29T15:07:35.090Z,5.63
2023-03-29T15:10:25.897Z,7.28
2023-03-29T15:13:33.654Z,8.15
2023-03-29T15:17:15.546Z,7.72
2023-03-29T15:20:16.614Z,6.65
2023-03-29T15:23:33.316Z,7.40
2023-03-29T15:26:30.570Z,6.65
2023-03-29T15:33:09.681Z,6.68
2023-03-29T15:36:49.410Z,7.10
2023-03-29T15:39:58.416Z,5.50
2023-03-29T15:42:55.524Z,6.37
2023-03-29T15:45:54.748Z,6.07
2023-03-29T15:48:34.078Z,5.88
2023-03-29T15:51:49.599Z,6.45
2023-03-29T15:54:39.759Z,7.15
2023-03-29T15:57:23.474Z,6.03
2023-03-29T15:59:59.198Z,12.00
2023-03-29T16:02:57.217Z,6.93
2023-03-29T16:05:45.336Z,8.55
2023-03-29T16:08:50.914Z,7.07
2023-03-29T16:12:19.202Z,7.32
2023-03-29T16:15:05.443Z,8.70
2023-03-29T16:17:46.518Z,7.05
2023-03-29T16:20:38.818Z,6.80
2023-03-29T16:23:27.247Z,6.10
2023-03-29T16:26:12.416Z,6.10
2023-03-29T16:29:08.726Z,5.35
2023-03-29T16:32:28.320Z,6.43
2023-03-29T16:35:28.972Z,5.65
2023-03-29T16:38:47.773Z,5.88
2023-03-29T16:41:37.502Z,5.28
2023-03-29T16:44:30.204Z,6.60
2023-03-29T16:47:15.972Z,6.00
2023-03-29T16:50:21.188Z,6.38
2023-03-29T16:53:11.329Z,6.28
2023-03-29T16:55:43.265Z,6.05
2023-03-29T16:58:54.420Z,5.22
2023-03-29T17:01:37.772Z,6.00
2023-03-29T17:07:39.627Z,6.60
2023-03-29T17:10:15.282Z,7.03
2023-03-29T17:13:53.403Z,7.20
2023-03-29T17:16:44.373Z,6.40
2023-03-29T17:19:16.835Z,4.85
2023-03-29T17:21:57.706Z,5.10
2023-03-29T17:24:40.827Z,4.00
2023-03-29T17:28:01.455Z,3.85
2023-03-29T17:31:13.733Z,4.10
2023-03-29T17:33:57.628Z,4.18
2023-03-29T17:36:57.749Z,4.05
2023-03-29T17:39:37.865Z,4.28
2023-03-29T17:42:28.423Z,3.60
2023-03-29T17:45:06.872Z,4.40
2023-03-29T17:48:21.308Z,5.45
2023-03-29T17:54:25.218Z,3.78
2023-03-29T17:57:00.972Z,5.28
2023-03-29T18:00:06.863Z,5.10
2023-03-29T18:10:02.534Z,3.60
2023-03-29T18:13:03.002Z,3.15
2023-03-29T18:16:22.477Z,3.10
2023-03-29T18:22:29.043Z,3.17
2023-03-29T18:25:08.091Z,3.20
2023-03-29T18:27:54.089Z,3.28
2023-03-29T18:30:26.601Z,3.80
2023-03-29T18:33:09.753Z,3.08
2023-03-29T18:35:41.474Z,3.30
2023-03-29T18:38:11.323Z,3.40
2023-03-29T18:41:04.879Z,3.00
2023-03-29T18:43:42.272Z,3.20
2023-03-29T18:46:26.171Z,3.20
2023-03-29T18:49:01.457Z,3.70
2023-03-29T18:52:06.139Z,3.75
2023-03-29T18:55:24.695Z,4.10
2023-03-29T18:58:52.641Z,3.40
2023-03-29T19:01:24.476Z,3.78
2023-03-29T19:03:52.640Z,3.35
2023-03-29T19:07:06.618Z,3.70
2023-03-29T19:09:38.132Z,3.97
2023-03-29T19:12:16.483Z,3.30
2023-03-29T19:15:28.850Z,3.67
2023-03-29T19:18:11.102Z,3.22
2023-03-29T19:20:44.322Z,4.22
2023-03-29T19:23:13.531Z,3.55
2023-03-29T19:25:58.740Z,4.30
2023-03-29T19:28:46.445Z,4.10
2023-03-29T19:31:14.690Z,5.05
2023-03-29T19:37:21.439Z,3.75
2023-03-29T19:39:49.509Z,4.40
2023-03-29T19:42:23.189Z,3.70
2023-03-29T19:45:04.272Z,3.60
2023-03-29T19:47:54.316Z,4.20
2023-03-29T19:51:09.985Z,3.72
2023-03-29T19:53:59.371Z,3.55
2023-03-29T19:57:12.574Z,3.20
2023-03-29T20:00:18.177Z,3.70
2023-03-29T20:03:25.236Z,3.70
2023-03-29T20:07:06.681Z,3.63
2023-03-29T20:10:02.165Z,4.20
2023-03-29T20:12:51.316Z,3.90
2023-03-29T20:15:57.873Z,4.30
2023-03-29T20:19:21.764Z,4.45
2023-03-29T20:25:33.133Z,4.90
2023-03-29T20:29:00.813Z,4.30
2023-03-29T20:32:03.747Z,4.25
2023-03-29T20:34:55.214Z,3.97
2023-03-29T20:38:28.507Z,4.28
2023-03-29T20:41:39.718Z,4.95
2023-03-29T20:44:49.807Z,4.38
2023-03-29T20:47:58.131Z,4.50
2023-03-29T20:51:03.216Z,4.72
2023-03-29T20:54:04.078Z,4.43
2023-03-29T20:56:59.046Z,4.18
2023-03-29T21:00:00.564Z,4.40
2023-03-29T21:03:13.370Z,4.57
2023-03-29T21:06:34.835Z,5.32
2023-03-29T21:09:59.715Z,4.50
2023-03-29T21:13:21.842Z,4.32
2023-03-29T21:17:15.221Z,4.00
2023-03-29T21:20:34.713Z,4.90
2023-03-29T21:24:00.441Z,3.47
2023-03-29T21:27:38.397Z,3.53
2023-03-29T21:31:00.975Z,3.17
2023-03-29T21:37:21.763Z,3.20
2023-03-29T21:41:32.441Z,2.90
2023-03-29T21:44:10.332Z,2.60
2023-03-29T21:47:26.789Z,2.80
2023-03-29T21:50:21.159Z,2.60
2023-03-29T21:54:04.224Z,2.85
2023-03-29T21:56:38.944Z,2.50
2023-03-29T21:59:19.241Z,3.00
2023-03-29T22:21:45.439Z,5.50
2023-03-29T22:27:55.215Z,4.65
2023-03-29T22:35:03.865Z,4.25
2023-03-29T22:38:51.222Z,4.60
2023-03-29T22:42:01.672Z,3.85
2023-03-29T22:48:24.605Z,4.25
2023-03-29T22:52:17.241Z,3.08
2023-03-29T22:55:40.707Z,4.07
2023-03-29T22:59:10.274Z,4.43
2023-03-29T23:01:41.930Z,4.28
2023-03-29T23:11:23.187Z,6.45
2023-03-29T23:13:59.722Z,6.38
2023-03-29T23:16:43.761Z,4.00
2023-03-29T23:20:06.503Z,4.65
2023-03-29T23:23:07.358Z,6.63
2023-03-29T23:25:35.890Z,4.72
2023-03-29T23:28:04.467Z,6.40
2023-03-29T23:30:58.268Z,5.22
2023-03-29T23:33:43.156Z,3.40
2023-03-29T23:37:28.325Z,4.25
2023-03-29T23:40:17.166Z,4.75
2023-03-29T23:43:19.928Z,4.05
2023-03-29T23:46:13.551Z,4.60
2023-03-29T23:49:17.267Z,5.03
2023-03-29T23:52:03.609Z,4.40
2023-03-29T23:54:59.843Z,3.50
2023-03-29T23:57:44.773Z,4.03
